sensor_id;sensor_type;location;lat;lon;timestamp;P1;durP1;ratioP1;P2;durP2;ratioP2
78169;SDS011;67412;49.892;14.490;2023-03-14T00:00:10;6.68;;;1.40;;
78169;SDS011;67412;49.892;14.490;2023-03-14T00:02:37;4.60;;;1.33;;
78169;SDS011;67412;49.892;14.490;2023-03-14T00:05:03;5.60;;;1.50;;
78169;SDS011;67412;49.892;14.490;2023-03-14T00:07:32;5.32;;;1.50;;
78169;SDS011;67412;49.892;14.490;2023-03-14T00:10:00;5.63;;;1.58;;
78169;SDS011;67412;49.892;14.490;2023-03-14T00:14:52;5.87;;;1.43;;
78169;SDS011;67412;49.892;14.490;2023-03-14T00:17:17;5.68;;;1.40;;
78169;SDS011;67412;49.892;14.490;2023-03-14T00:19:42;5.00;;;1.70;;
78169;SDS011;67412;49.892;14.490;2023-03-14T00:22:08;4.18;;;1.45;;
78169;SDS011;67412;49.892;14.490;2023-03-14T00:24:33;3.70;;;1.20;;
78169;SDS011;67412;49.892;14.490;2023-03-14T00:26:58;5.00;;;1.38;;
78169;SDS011;67412;49.892;14.490;2023-03-14T00:29:24;5.93;;;1.55;;
78169;SDS011;67412;49.892;14.490;2023-03-14T00:31:49;4.40;;;1.35;;
78169;SDS011;67412;49.892;14.490;2023-03-14T00:34:14;6.57;;;1.30;;
78169;SDS011;67412;49.892;14.490;2023-03-14T00:36:40;3.33;;;1.40;;
78169;SDS011;67412;49.892;14.490;2023-03-14T00:39:05;4.85;;;1.20;;
78169;SDS011;67412;49.892;14.490;2023-03-14T00:41:31;5.28;;;1.70;;
78169;SDS011;67412;49.892;14.490;2023-03-14T00:43:56;4.38;;;1.13;;
78169;SDS011;67412;49.892;14.490;2023-03-14T00:46:21;5.85;;;1.42;;
78169;SDS011;67412;49.892;14.490;2023-03-14T00:48:47;4.32;;;1.45;;
78169;SDS011;67412;49.892;14.490;2023-03-14T00:51:12;5.22;;;1.58;;
78169;SDS011;67412;49.892;14.490;2023-03-14T00:53:40;7.65;;;1.95;;
78169;SDS011;67412;49.892;14.490;2023-03-14T00:56:06;2.92;;;1.10;;
78169;SDS011;67412;49.892;14.490;2023-03-14T00:58:34;4.53;;;1.33;;
78169;SDS011;67412;49.892;14.490;2023-03-14T01:01:04;4.10;;;1.52;;
78169;SDS011;67412;49.892;14.490;2023-03-14T01:03:34;2.40;;;1.02;;
78169;SDS011;67412;49.892;14.490;2023-03-14T01:06:09;3.70;;;1.15;;
78169;SDS011;67412;49.892;14.490;2023-03-14T01:08:39;4.30;;;1.40;;
78169;SDS011;67412;49.892;14.490;2023-03-14T01:11:08;5.97;;;1.70;;
78169;SDS011;67412;49.892;14.490;2023-03-14T01:13:34;4.18;;;1.40;;
78169;SDS011;67412;49.892;14.490;2023-03-14T01:16:01;5.00;;;1.67;;
78169;SDS011;67412;49.892;14.490;2023-03-14T01:18:30;5.45;;;1.40;;
78169;SDS011;67412;49.892;14.490;2023-03-14T01:20:55;4.95;;;2.03;;
78169;SDS011;67412;49.892;14.490;2023-03-14T01:23:20;6.00;;;1.90;;
78169;SDS011;67412;49.892;14.490;2023-03-14T01:25:46;5.47;;;1.50;;
78169;SDS011;67412;49.892;14.490;2023-03-14T01:28:11;6.78;;;2.03;;
78169;SDS011;67412;49.892;14.490;2023-03-14T01:30:36;6.90;;;2.20;;
78169;SDS011;67412;49.892;14.490;2023-03-14T01:33:02;9.00;;;2.15;;
78169;SDS011;67412;49.892;14.490;2023-03-14T01:35:27;5.32;;;1.80;;
78169;SDS011;67412;49.892;14.490;2023-03-14T01:37:52;6.22;;;1.90;;
78169;SDS011;67412;49.892;14.490;2023-03-14T01:40:18;7.03;;;1.67;;
78169;SDS011;67412;49.892;14.490;2023-03-14T01:42:45;7.45;;;1.95;;
78169;SDS011;67412;49.892;14.490;2023-03-14T01:45:53;6.15;;;2.00;;
78169;SDS011;67412;49.892;14.490;2023-03-14T01:48:20;6.45;;;1.75;;
78169;SDS011;67412;49.892;14.490;2023-03-14T01:50:46;5.15;;;1.50;;
78169;SDS011;67412;49.892;14.490;2023-03-14T01:53:12;5.47;;;1.52;;
78169;SDS011;67412;49.892;14.490;2023-03-14T01:55:39;5.00;;;1.60;;
78169;SDS011;67412;49.892;14.490;2023-03-14T01:58:04;4.70;;;1.50;;
78169;SDS011;67412;49.892;14.490;2023-03-14T02:00:30;5.85;;;1.50;;
78169;SDS011;67412;49.892;14.490;2023-03-14T02:02:58;6.47;;;1.58;;
78169;SDS011;67412;49.892;14.490;2023-03-14T02:05:28;5.07;;;1.48;;
78169;SDS011;67412;49.892;14.490;2023-03-14T02:08:01;5.43;;;1.63;;
78169;SDS011;67412;49.892;14.490;2023-03-14T02:10:30;6.10;;;1.65;;
78169;SDS011;67412;49.892;14.490;2023-03-14T02:12:58;6.63;;;1.85;;
78169;SDS011;67412;49.892;14.490;2023-03-14T02:15:26;5.82;;;1.65;;
78169;SDS011;67412;49.892;14.490;2023-03-14T02:17:51;4.75;;;1.40;;
78169;SDS011;67412;49.892;14.490;2023-03-14T02:23:01;7.38;;;1.42;;
78169;SDS011;67412;49.892;14.490;2023-03-14T02:28:21;4.45;;;1.17;;
78169;SDS011;67412;49.892;14.490;2023-03-14T02:30:46;4.82;;;1.63;;
78169;SDS011;67412;49.892;14.490;2023-03-14T02:33:13;5.32;;;1.48;;
78169;SDS011;67412;49.892;14.490;2023-03-14T02:35:45;4.28;;;1.15;;
78169;SDS011;67412;49.892;14.490;2023-03-14T02:40:43;6.60;;;1.75;;
78169;SDS011;67412;49.892;14.490;2023-03-14T02:43:09;4.97;;;1.30;;
78169;SDS011;67412;49.892;14.490;2023-03-14T02:45:36;6.43;;;1.52;;
78169;SDS011;67412;49.892;14.490;2023-03-14T02:48:06;4.60;;;1.45;;
78169;SDS011;67412;49.892;14.490;2023-03-14T02:50:36;5.22;;;1.73;;
78169;SDS011;67412;49.892;14.490;2023-03-14T02:53:02;4.88;;;1.40;;
78169;SDS011;67412;49.892;14.490;2023-03-14T02:55:27;4.53;;;1.38;;
78169;SDS011;67412;49.892;14.490;2023-03-14T02:57:53;3.90;;;1.17;;
78169;SDS011;67412;49.892;14.490;2023-03-14T03:00:19;3.97;;;1.05;;
78169;SDS011;67412;49.892;14.490;2023-03-14T03:02:45;2.63;;;1.13;;
78169;SDS011;67412;49.892;14.490;2023-03-14T03:05:11;3.75;;;1.35;;
78169;SDS011;67412;49.892;14.490;2023-03-14T03:07:36;2.95;;;1.25;;
78169;SDS011;67412;49.892;14.490;2023-03-14T03:10:02;3.22;;;1.02;;
78169;SDS011;67412;49.892;14.490;2023-03-14T03:12:27;3.33;;;1.15;;
78169;SDS011;67412;49.892;14.490;2023-03-14T03:14:53;5.22;;;1.50;;
78169;SDS011;67412;49.892;14.490;2023-03-14T03:17:18;4.97;;;1.40;;
78169;SDS011;67412;49.892;14.490;2023-03-14T03:19:44;3.60;;;1.05;;
78169;SDS011;67412;49.892;14.490;2023-03-14T03:22:09;4.65;;;1.23;;
78169;SDS011;67412;49.892;14.490;2023-03-14T03:24:34;4.97;;;1.20;;
78169;SDS011;67412;49.892;14.490;2023-03-14T03:27:00;4.10;;;1.13;;
78169;SDS011;67412;49.892;14.490;2023-03-14T03:29:25;4.35;;;1.23;;
78169;SDS011;67412;49.892;14.490;2023-03-14T03:31:50;3.35;;;1.10;;
78169;SDS011;67412;49.892;14.490;2023-03-14T03:34:16;3.42;;;1.08;;
78169;SDS011;67412;49.892;14.490;2023-03-14T03:36:42;3.67;;;1.10;;
78169;SDS011;67412;49.892;14.490;2023-03-14T03:39:07;2.78;;;0.95;;
78169;SDS011;67412;49.892;14.490;2023-03-14T03:41:32;3.40;;;1.20;;
78169;SDS011;67412;49.892;14.490;2023-03-14T03:43:58;3.83;;;1.08;;
78169;SDS011;67412;49.892;14.490;2023-03-14T03:46:24;2.05;;;0.93;;
78169;SDS011;67412;49.892;14.490;2023-03-14T03:48:59;3.25;;;1.20;;
78169;SDS011;67412;49.892;14.490;2023-03-14T03:51:25;2.38;;;0.90;;
78169;SDS011;67412;49.892;14.490;2023-03-14T03:53:51;3.58;;;1.00;;
78169;SDS011;67412;49.892;14.490;2023-03-14T03:56:16;2.08;;;0.90;;
78169;SDS011;67412;49.892;14.490;2023-03-14T03:58:42;2.03;;;0.80;;
78169;SDS011;67412;49.892;14.490;2023-03-14T04:01:08;3.22;;;0.95;;
78169;SDS011;67412;49.892;14.490;2023-03-14T04:03:34;5.10;;;1.27;;
78169;SDS011;67412;49.892;14.490;2023-03-14T04:06:03;3.30;;;1.20;;
78169;SDS011;67412;49.892;14.490;2023-03-14T04:08:31;3.47;;;1.00;;
78169;SDS011;67412;49.892;14.490;2023-03-14T04:10:57;2.80;;;1.00;;
78169;SDS011;67412;49.892;14.490;2023-03-14T04:15:49;2.17;;;1.00;;
78169;SDS011;67412;49.892;14.490;2023-03-14T04:18:14;4.00;;;1.20;;
78169;SDS011;67412;49.892;14.490;2023-03-14T04:20:40;2.10;;;0.80;;
78169;SDS011;67412;49.892;14.490;2023-03-14T04:23:05;3.00;;;1.10;;
78169;SDS011;67412;49.892;14.490;2023-03-14T04:25:30;4.03;;;1.00;;
78169;SDS011;67412;49.892;14.490;2023-03-14T04:27:56;3.53;;;0.95;;
78169;SDS011;67412;49.892;14.490;2023-03-14T04:30:21;2.22;;;0.80;;
78169;SDS011;67412;49.892;14.490;2023-03-14T04:32:47;3.35;;;0.90;;
78169;SDS011;67412;49.892;14.490;2023-03-14T04:35:12;2.03;;;0.77;;
78169;SDS011;67412;49.892;14.490;2023-03-14T04:37:37;2.78;;;0.98;;
78169;SDS011;67412;49.892;14.490;2023-03-14T04:40:03;1.20;;;0.52;;
78169;SDS011;67412;49.892;14.490;2023-03-14T04:42:31;3.47;;;1.00;;
78169;SDS011;67412;49.892;14.490;2023-03-14T04:44:56;2.03;;;0.77;;
78169;SDS011;67412;49.892;14.490;2023-03-14T04:47:22;3.03;;;0.80;;
78169;SDS011;67412;49.892;14.490;2023-03-14T04:49:47;4.78;;;1.00;;
78169;SDS011;67412;49.892;14.490;2023-03-14T04:52:12;2.67;;;0.95;;
78169;SDS011;67412;49.892;14.490;2023-03-14T04:54:38;1.52;;;0.47;;
78169;SDS011;67412;49.892;14.490;2023-03-14T04:57:03;1.95;;;0.50;;
78169;SDS011;67412;49.892;14.490;2023-03-14T04:59:28;1.58;;;0.57;;
78169;SDS011;67412;49.892;14.490;2023-03-14T05:01:54;0.85;;;0.57;;
78169;SDS011;67412;49.892;14.490;2023-03-14T05:04:19;1.75;;;0.30;;
78169;SDS011;67412;49.892;14.490;2023-03-14T05:06:44;1.55;;;0.60;;
78169;SDS011;67412;49.892;14.490;2023-03-14T05:09:10;2.70;;;0.50;;
78169;SDS011;67412;49.892;14.490;2023-03-14T05:11:35;0.38;;;0.25;;
78169;SDS011;67412;49.892;14.490;2023-03-14T05:14:00;2.35;;;0.50;;
78169;SDS011;67412;49.892;14.490;2023-03-14T05:16:26;1.77;;;0.50;;
78169;SDS011;67412;49.892;14.490;2023-03-14T05:18:51;1.13;;;0.47;;
78169;SDS011;67412;49.892;14.490;2023-03-14T05:21:17;0.47;;;0.45;;
78169;SDS011;67412;49.892;14.490;2023-03-14T05:23:42;0.80;;;0.50;;
78169;SDS011;67412;49.892;14.490;2023-03-14T05:26:07;1.75;;;0.57;;
78169;SDS011;67412;49.892;14.490;2023-03-14T05:28:33;3.33;;;0.50;;
78169;SDS011;67412;49.892;14.490;2023-03-14T05:30:58;2.00;;;0.60;;
78169;SDS011;67412;49.892;14.490;2023-03-14T05:33:23;1.15;;;0.47;;
78169;SDS011;67412;49.892;14.490;2023-03-14T05:35:49;0.70;;;0.60;;
78169;SDS011;67412;49.892;14.490;2023-03-14T05:38:14;0.55;;;0.40;;
78169;SDS011;67412;49.892;14.490;2023-03-14T05:40:39;1.20;;;0.30;;
78169;SDS011;67412;49.892;14.490;2023-03-14T05:43:05;0.45;;;0.20;;
78169;SDS011;67412;49.892;14.490;2023-03-14T05:45:32;2.08;;;0.55;;
78169;SDS011;67412;49.892;14.490;2023-03-14T05:47:58;0.45;;;0.35;;
78169;SDS011;67412;49.892;14.490;2023-03-14T05:50:23;1.80;;;0.57;;
78169;SDS011;67412;49.892;14.490;2023-03-14T05:52:49;0.88;;;0.32;;
78169;SDS011;67412;49.892;14.490;2023-03-14T05:55:14;1.67;;;0.50;;
78169;SDS011;67412;49.892;14.490;2023-03-14T05:57:39;1.05;;;0.43;;
78169;SDS011;67412;49.892;14.490;2023-03-14T06:00:05;1.08;;;0.32;;
78169;SDS011;67412;49.892;14.490;2023-03-14T06:02:31;0.40;;;0.30;;
78169;SDS011;67412;49.892;14.490;2023-03-14T06:04:56;1.17;;;0.50;;
78169;SDS011;67412;49.892;14.490;2023-03-14T06:07:21;1.10;;;0.45;;
78169;SDS011;67412;49.892;14.490;2023-03-14T06:09:47;2.05;;;0.55;;
78169;SDS011;67412;49.892;14.490;2023-03-14T06:12:12;1.63;;;0.80;;
78169;SDS011;67412;49.892;14.490;2023-03-14T06:14:37;1.88;;;0.90;;
78169;SDS011;67412;49.892;14.490;2023-03-14T06:17:03;4.88;;;1.20;;
78169;SDS011;67412;49.892;14.490;2023-03-14T06:19:28;5.22;;;1.30;;
78169;SDS011;67412;49.892;14.490;2023-03-14T06:21:54;2.40;;;1.05;;
78169;SDS011;67412;49.892;14.490;2023-03-14T06:24:19;4.05;;;0.82;;
78169;SDS011;67412;49.892;14.490;2023-03-14T06:26:44;2.10;;;0.80;;
78169;SDS011;67412;49.892;14.490;2023-03-14T06:29:10;3.22;;;0.90;;
78169;SDS011;67412;49.892;14.490;2023-03-14T06:31:35;2.38;;;0.60;;
78169;SDS011;67412;49.892;14.490;2023-03-14T06:34:01;1.27;;;0.47;;
78169;SDS011;67412;49.892;14.490;2023-03-14T06:36:26;2.15;;;0.50;;
78169;SDS011;67412;49.892;14.490;2023-03-14T06:38:51;2.38;;;0.80;;
78169;SDS011;67412;49.892;14.490;2023-03-14T06:41:17;1.70;;;0.50;;
78169;SDS011;67412;49.892;14.490;2023-03-14T06:43:43;3.20;;;0.60;;
78169;SDS011;67412;49.892;14.490;2023-03-14T06:46:08;2.47;;;0.70;;
78169;SDS011;67412;49.892;14.490;2023-03-14T06:48:34;2.10;;;0.75;;
78169;SDS011;67412;49.892;14.490;2023-03-14T06:50:59;2.85;;;0.75;;
78169;SDS011;67412;49.892;14.490;2023-03-14T06:53:24;2.08;;;0.80;;
78169;SDS011;67412;49.892;14.490;2023-03-14T06:55:50;1.55;;;0.75;;
78169;SDS011;67412;49.892;14.490;2023-03-14T06:58:15;0.93;;;0.43;;
78169;SDS011;67412;49.892;14.490;2023-03-14T07:00:41;1.73;;;0.60;;
78169;SDS011;67412;49.892;14.490;2023-03-14T07:03:06;1.08;;;0.30;;
78169;SDS011;67412;49.892;14.490;2023-03-14T07:05:32;2.35;;;0.50;;
78169;SDS011;67412;49.892;14.490;2023-03-14T07:07:57;0.75;;;0.30;;
78169;SDS011;67412;49.892;14.490;2023-03-14T07:10:22;1.70;;;0.43;;
78169;SDS011;67412;49.892;14.490;2023-03-14T07:12:48;1.17;;;0.50;;
78169;SDS011;67412;49.892;14.490;2023-03-14T07:15:14;1.35;;;0.32;;
78169;SDS011;67412;49.892;14.490;2023-03-14T07:17:39;1.60;;;0.50;;
78169;SDS011;67412;49.892;14.490;2023-03-14T07:20:05;2.60;;;0.38;;
78169;SDS011;67412;49.892;14.490;2023-03-14T07:22:31;2.47;;;0.55;;
78169;SDS011;67412;49.892;14.490;2023-03-14T07:24:57;0.95;;;0.30;;
78169;SDS011;67412;49.892;14.490;2023-03-14T07:27:22;0.47;;;0.40;;
78169;SDS011;67412;49.892;14.490;2023-03-14T07:29:48;1.55;;;0.40;;
78169;SDS011;67412;49.892;14.490;2023-03-14T07:32:13;2.92;;;0.22;;
78169;SDS011;67412;49.892;14.490;2023-03-14T07:34:40;0.32;;;0.20;;
78169;SDS011;67412;49.892;14.490;2023-03-14T07:37:06;2.00;;;0.10;;
78169;SDS011;67412;49.892;14.490;2023-03-14T07:39:31;0.25;;;0.20;;
78169;SDS011;67412;49.892;14.490;2023-03-14T07:41:57;0.47;;;0.28;;
78169;SDS011;67412;49.892;14.490;2023-03-14T07:44:22;0.63;;;0.30;;
78169;SDS011;67412;49.892;14.490;2023-03-14T07:46:47;1.08;;;0.52;;
78169;SDS011;67412;49.892;14.490;2023-03-14T07:49:13;1.00;;;0.40;;
78169;SDS011;67412;49.892;14.490;2023-03-14T07:51:38;0.30;;;0.30;;
78169;SDS011;67412;49.892;14.490;2023-03-14T07:54:03;0.15;;;0.15;;
78169;SDS011;67412;49.892;14.490;2023-03-14T07:56:29;1.95;;;0.47;;
78169;SDS011;67412;49.892;14.490;2023-03-14T07:58:54;1.25;;;0.30;;
78169;SDS011;67412;49.892;14.490;2023-03-14T08:01:20;1.25;;;0.40;;
78169;SDS011;67412;49.892;14.490;2023-03-14T08:03:45;1.55;;;0.30;;
78169;SDS011;67412;49.892;14.490;2023-03-14T08:06:10;0.63;;;0.20;;
78169;SDS011;67412;49.892;14.490;2023-03-14T08:08:36;0.95;;;0.40;;
78169;SDS011;67412;49.892;14.490;2023-03-14T08:11:02;1.15;;;0.30;;
78169;SDS011;67412;49.892;14.490;2023-03-14T08:13:29;1.38;;;0.50;;
78169;SDS011;67412;49.892;14.490;2023-03-14T08:15:54;0.85;;;0.40;;
78169;SDS011;67412;49.892;14.490;2023-03-14T08:18:19;0.82;;;0.30;;
78169;SDS011;67412;49.892;14.490;2023-03-14T08:20:45;0.63;;;0.40;;
78169;SDS011;67412;49.892;14.490;2023-03-14T08:23:10;1.65;;;0.22;;
78169;SDS011;67412;49.892;14.490;2023-03-14T08:25:37;2.22;;;0.30;;
78169;SDS011;67412;49.892;14.490;2023-03-14T08:28:03;0.93;;;0.30;;
78169;SDS011;67412;49.892;14.490;2023-03-14T08:30:29;0.13;;;0.10;;
78169;SDS011;67412;49.892;14.490;2023-03-14T08:32:56;1.77;;;0.50;;
78169;SDS011;67412;49.892;14.490;2023-03-14T08:35:22;0.40;;;0.38;;
78169;SDS011;67412;49.892;14.490;2023-03-14T08:37:48;3.88;;;0.55;;
78169;SDS011;67412;49.892;14.490;2023-03-14T08:40:14;1.27;;;0.30;;
78169;SDS011;67412;49.892;14.490;2023-03-14T08:42:42;1.05;;;0.57;;
78169;SDS011;67412;49.892;14.490;2023-03-14T08:45:08;2.22;;;0.47;;
78169;SDS011;67412;49.892;14.490;2023-03-14T08:47:35;0.45;;;0.20;;
78169;SDS011;67412;49.892;14.490;2023-03-14T08:50:01;0.90;;;0.20;;
78169;SDS011;67412;49.892;14.490;2023-03-14T08:52:29;2.40;;;0.30;;
78169;SDS011;67412;49.892;14.490;2023-03-14T08:54:55;2.15;;;0.47;;
78169;SDS011;67412;49.892;14.490;2023-03-14T08:57:21;1.85;;;0.40;;
78169;SDS011;67412;49.892;14.490;2023-03-14T08:59:47;3.17;;;0.40;;
78169;SDS011;67412;49.892;14.490;2023-03-14T09:02:12;0.95;;;0.40;;
78169;SDS011;67412;49.892;14.490;2023-03-14T09:04:38;1.67;;;0.57;;
78169;SDS011;67412;49.892;14.490;2023-03-14T09:07:04;0.80;;;0.47;;
78169;SDS011;67412;49.892;14.490;2023-03-14T09:09:29;1.17;;;0.50;;
78169;SDS011;67412;49.892;14.490;2023-03-14T09:11:55;1.63;;;0.47;;
78169;SDS011;67412;49.892;14.490;2023-03-14T09:14:21;1.02;;;0.40;;
78169;SDS011;67412;49.892;14.490;2023-03-14T09:16:47;2.78;;;0.52;;
78169;SDS011;67412;49.892;14.490;2023-03-14T09:19:12;1.20;;;0.40;;
78169;SDS011;67412;49.892;14.490;2023-03-14T09:21:37;0.88;;;0.30;;
78169;SDS011;67412;49.892;14.490;2023-03-14T09:24:04;1.55;;;0.52;;
78169;SDS011;67412;49.892;14.490;2023-03-14T09:26:29;3.17;;;0.50;;
78169;SDS011;67412;49.892;14.490;2023-03-14T09:28:55;1.83;;;0.75;;
78169;SDS011;67412;49.892;14.490;2023-03-14T09:31:20;1.17;;;0.38;;
78169;SDS011;67412;49.892;14.490;2023-03-14T09:33:46;2.20;;;0.50;;
78169;SDS011;67412;49.892;14.490;2023-03-14T09:36:11;1.58;;;0.45;;
78169;SDS011;67412;49.892;14.490;2023-03-14T09:38:37;0.22;;;0.20;;
78169;SDS011;67412;49.892;14.490;2023-03-14T09:41:03;1.33;;;0.30;;
78169;SDS011;67412;49.892;14.490;2023-03-14T09:43:37;2.55;;;0.55;;
78169;SDS011;67412;49.892;14.490;2023-03-14T09:46:03;1.65;;;0.45;;
78169;SDS011;67412;49.892;14.490;2023-03-14T09:48:30;1.25;;;0.50;;
78169;SDS011;67412;49.892;14.490;2023-03-14T09:50:59;1.20;;;0.30;;
78169;SDS011;67412;49.892;14.490;2023-03-14T09:53:34;1.95;;;0.60;;
78169;SDS011;67412;49.892;14.490;2023-03-14T09:56:04;1.20;;;0.55;;
78169;SDS011;67412;49.892;14.490;2023-03-14T09:58:39;0.77;;;0.38;;
78169;SDS011;67412;49.892;14.490;2023-03-14T10:01:09;1.70;;;0.50;;
78169;SDS011;67412;49.892;14.490;2023-03-14T10:03:39;2.08;;;0.50;;
78169;SDS011;67412;49.892;14.490;2023-03-14T10:06:11;3.00;;;0.45;;
78169;SDS011;67412;49.892;14.490;2023-03-14T10:08:39;1.17;;;0.40;;
78169;SDS011;67412;49.892;14.490;2023-03-14T10:11:05;1.35;;;0.52;;
78169;SDS011;67412;49.892;14.490;2023-03-14T10:13:32;1.30;;;0.38;;
78169;SDS011;67412;49.892;14.490;2023-03-14T10:16:02;2.33;;;0.65;;
78169;SDS011;67412;49.892;14.490;2023-03-14T10:18:32;2.42;;;0.65;;
78169;SDS011;67412;49.892;14.490;2023-03-14T10:23:42;0.85;;;0.35;;
78169;SDS011;67412;49.892;14.490;2023-03-14T10:26:09;1.42;;;0.47;;
78169;SDS011;67412;49.892;14.490;2023-03-14T10:28:41;4.68;;;0.95;;
78169;SDS011;67412;49.892;14.490;2023-03-14T10:31:09;2.40;;;0.52;;
78169;SDS011;67412;49.892;14.490;2023-03-14T10:33:35;2.15;;;0.45;;
78169;SDS011;67412;49.892;14.490;2023-03-14T10:36:03;1.25;;;0.30;;
78169;SDS011;67412;49.892;14.490;2023-03-14T10:38:39;2.08;;;0.50;;
78169;SDS011;67412;49.892;14.490;2023-03-14T10:41:24;0.80;;;0.32;;
78169;SDS011;67412;49.892;14.490;2023-03-14T10:43:51;1.88;;;0.20;;
78169;SDS011;67412;49.892;14.490;2023-03-14T10:46:19;0.65;;;0.40;;
78169;SDS011;67412;49.892;14.490;2023-03-14T10:48:45;0.77;;;0.28;;
78169;SDS011;67412;49.892;14.490;2023-03-14T10:56:23;0.90;;;0.17;;
78169;SDS011;67412;49.892;14.490;2023-03-14T10:58:51;3.03;;;0.60;;
78169;SDS011;67412;49.892;14.490;2023-03-14T11:03:54;0.63;;;0.50;;
78169;SDS011;67412;49.892;14.490;2023-03-14T11:09:18;1.88;;;0.38;;
78169;SDS011;67412;49.892;14.490;2023-03-14T11:11:46;3.30;;;0.38;;
78169;SDS011;67412;49.892;14.490;2023-03-14T11:17:15;1.52;;;0.38;;
78169;SDS011;67412;49.892;14.490;2023-03-14T11:22:39;2.22;;;0.43;;
78169;SDS011;67412;49.892;14.490;2023-03-14T11:28:09;2.78;;;0.65;;
78169;SDS011;67412;49.892;14.490;2023-03-14T11:33:14;0.57;;;0.40;;
78169;SDS011;67412;49.892;14.490;2023-03-14T11:38:47;2.28;;;0.60;;
78169;SDS011;67412;49.892;14.490;2023-03-14T11:41:22;0.65;;;0.35;;
78169;SDS011;67412;49.892;14.490;2023-03-14T11:43:56;1.75;;;0.38;;
78169;SDS011;67412;49.892;14.490;2023-03-14T11:46:24;2.15;;;0.60;;
78169;SDS011;67412;49.892;14.490;2023-03-14T11:51:25;1.40;;;0.32;;
78169;SDS011;67412;49.892;14.490;2023-03-14T11:56:51;1.55;;;0.60;;
78169;SDS011;67412;49.892;14.490;2023-03-14T11:59:31;2.90;;;0.60;;
78169;SDS011;67412;49.892;14.490;2023-03-14T12:07:03;2.17;;;0.40;;
78169;SDS011;67412;49.892;14.490;2023-03-14T12:09:41;1.52;;;0.50;;
78169;SDS011;67412;49.892;14.490;2023-03-14T12:12:10;1.05;;;0.40;;
78169;SDS011;67412;49.892;14.490;2023-03-14T12:14:45;1.20;;;0.30;;
78169;SDS011;67412;49.892;14.490;2023-03-14T12:17:35;1.38;;;0.40;;
78169;SDS011;67412;49.892;14.490;2023-03-14T12:20:19;0.90;;;0.20;;
78169;SDS011;67412;49.892;14.490;2023-03-14T12:25:23;0.85;;;0.32;;
78169;SDS011;67412;49.892;14.490;2023-03-14T12:35:51;2.03;;;0.60;;
78169;SDS011;67412;49.892;14.490;2023-03-14T12:41:14;1.05;;;0.47;;
78169;SDS011;67412;49.892;14.490;2023-03-14T12:43:39;1.45;;;0.40;;
78169;SDS011;67412;49.892;14.490;2023-03-14T12:46:09;0.68;;;0.22;;
78169;SDS011;67412;49.892;14.490;2023-03-14T12:48:40;1.48;;;0.47;;
78169;SDS011;67412;49.892;14.490;2023-03-14T12:51:16;1.05;;;0.15;;
78169;SDS011;67412;49.892;14.490;2023-03-14T13:01:35;0.43;;;0.30;;
78169;SDS011;67412;49.892;14.490;2023-03-14T13:04:07;1.40;;;0.35;;
78169;SDS011;67412;49.892;14.490;2023-03-14T13:06:44;0.90;;;0.38;;
78169;SDS011;67412;49.892;14.490;2023-03-14T13:11:54;1.60;;;0.68;;
78169;SDS011;67412;49.892;14.490;2023-03-14T13:14:21;1.27;;;0.52;;
78169;SDS011;67412;49.892;14.490;2023-03-14T13:16:47;1.20;;;0.30;;
78169;SDS011;67412;49.892;14.490;2023-03-14T13:19:15;1.73;;;0.70;;
78169;SDS011;67412;49.892;14.490;2023-03-14T13:21:41;1.17;;;0.38;;
78169;SDS011;67412;49.892;14.490;2023-03-14T13:24:20;1.40;;;0.50;;
78169;SDS011;67412;49.892;14.490;2023-03-14T13:26:47;0.70;;;0.50;;
78169;SDS011;67412;49.892;14.490;2023-03-14T13:29:16;1.27;;;0.40;;
78169;SDS011;67412;49.892;14.490;2023-03-14T13:31:45;1.85;;;0.57;;
78169;SDS011;67412;49.892;14.490;2023-03-14T13:34:12;1.55;;;0.82;;
78169;SDS011;67412;49.892;14.490;2023-03-14T13:36:38;0.73;;;0.30;;
78169;SDS011;67412;49.892;14.490;2023-03-14T13:39:04;1.23;;;0.40;;
78169;SDS011;67412;49.892;14.490;2023-03-14T13:41:37;0.77;;;0.38;;
78169;SDS011;67412;49.892;14.490;2023-03-14T13:44:03;2.80;;;0.50;;
78169;SDS011;67412;49.892;14.490;2023-03-14T13:46:33;1.25;;;0.50;;
78169;SDS011;67412;49.892;14.490;2023-03-14T13:49:04;1.35;;;0.40;;
78169;SDS011;67412;49.892;14.490;2023-03-14T13:51:31;1.60;;;0.40;;
78169;SDS011;67412;49.892;14.490;2023-03-14T13:54:00;1.98;;;0.43;;
78169;SDS011;67412;49.892;14.490;2023-03-14T13:56:28;1.52;;;0.45;;
78169;SDS011;67412;49.892;14.490;2023-03-14T13:58:56;1.67;;;0.60;;
78169;SDS011;67412;49.892;14.490;2023-03-14T14:04:06;1.98;;;0.52;;
78169;SDS011;67412;49.892;14.490;2023-03-14T14:06:35;1.15;;;0.38;;
78169;SDS011;67412;49.892;14.490;2023-03-14T14:09:04;1.10;;;0.38;;
78169;SDS011;67412;49.892;14.490;2023-03-14T14:11:47;2.50;;;0.60;;
78169;SDS011;67412;49.892;14.490;2023-03-14T14:14:21;2.75;;;0.40;;
78169;SDS011;67412;49.892;14.490;2023-03-14T14:16:54;0.80;;;0.40;;
78169;SDS011;67412;49.892;14.490;2023-03-14T14:19:23;1.67;;;0.50;;
78169;SDS011;67412;49.892;14.490;2023-03-14T14:21:52;0.93;;;0.47;;
78169;SDS011;67412;49.892;14.490;2023-03-14T14:24:18;1.52;;;0.52;;
78169;SDS011;67412;49.892;14.490;2023-03-14T14:26:50;1.33;;;0.60;;
78169;SDS011;67412;49.892;14.490;2023-03-14T14:32:03;3.33;;;0.52;;
78169;SDS011;67412;49.892;14.490;2023-03-14T14:34:38;2.45;;;0.80;;
78169;SDS011;67412;49.892;14.490;2023-03-14T14:39:47;1.88;;;0.68;;
78169;SDS011;67412;49.892;14.490;2023-03-14T14:42:14;1.98;;;0.70;;
78169;SDS011;67412;49.892;14.490;2023-03-14T14:44:41;0.60;;;0.30;;
78169;SDS011;67412;49.892;14.490;2023-03-14T14:47:13;1.65;;;0.55;;
78169;SDS011;67412;49.892;14.490;2023-03-14T14:49:40;2.15;;;0.45;;
78169;SDS011;67412;49.892;14.490;2023-03-14T14:52:16;2.13;;;0.70;;
78169;SDS011;67412;49.892;14.490;2023-03-14T14:54:47;1.25;;;0.40;;
78169;SDS011;67412;49.892;14.490;2023-03-14T14:57:21;1.85;;;0.60;;
78169;SDS011;67412;49.892;14.490;2023-03-14T14:59:49;1.55;;;0.40;;
78169;SDS011;67412;49.892;14.490;2023-03-14T15:04:54;1.73;;;0.50;;
78169;SDS011;67412;49.892;14.490;2023-03-14T15:07:20;1.10;;;0.35;;
78169;SDS011;67412;49.892;14.490;2023-03-14T15:09:45;3.33;;;0.55;;
78169;SDS011;67412;49.892;14.490;2023-03-14T15:12:10;3.20;;;0.90;;
78169;SDS011;67412;49.892;14.490;2023-03-14T15:14:36;3.95;;;0.70;;
78169;SDS011;67412;49.892;14.490;2023-03-14T15:17:02;2.28;;;0.70;;
78169;SDS011;67412;49.892;14.490;2023-03-14T15:19:27;1.30;;;0.38;;
78169;SDS011;67412;49.892;14.490;2023-03-14T15:21:55;2.05;;;0.60;;
78169;SDS011;67412;49.892;14.490;2023-03-14T15:24:20;2.17;;;0.68;;
78169;SDS011;67412;49.892;14.490;2023-03-14T15:26:46;4.72;;;1.05;;
78169;SDS011;67412;49.892;14.490;2023-03-14T15:29:12;2.15;;;0.50;;
78169;SDS011;67412;49.892;14.490;2023-03-14T15:31:38;0.32;;;0.22;;
78169;SDS011;67412;49.892;14.490;2023-03-14T15:34:04;3.03;;;0.60;;
78169;SDS011;67412;49.892;14.490;2023-03-14T15:36:33;2.25;;;0.85;;
78169;SDS011;67412;49.892;14.490;2023-03-14T15:39:00;2.78;;;0.40;;
78169;SDS011;67412;49.892;14.490;2023-03-14T15:41:26;2.78;;;0.70;;
78169;SDS011;67412;49.892;14.490;2023-03-14T15:43:52;1.98;;;0.50;;
78169;SDS011;67412;49.892;14.490;2023-03-14T15:46:19;4.40;;;1.02;;
78169;SDS011;67412;49.892;14.490;2023-03-14T15:48:44;1.85;;;0.70;;
78169;SDS011;67412;49.892;14.490;2023-03-14T15:51:10;2.90;;;0.70;;
78169;SDS011;67412;49.892;14.490;2023-03-14T15:53:36;3.42;;;0.80;;
78169;SDS011;67412;49.892;14.490;2023-03-14T15:56:02;3.13;;;0.65;;
78169;SDS011;67412;49.892;14.490;2023-03-14T15:58:31;3.13;;;0.80;;